createdAt,value
2023-03-11T00:00:40.970Z,1.80
2023-03-11T00:03:10.421Z,1.30
2023-03-11T00:05:40.296Z,1.85
2023-03-11T00:08:10.997Z,3.63
2023-03-11T00:10:43.119Z,1.10
2023-03-11T00:13:14.331Z,2.00
2023-03-11T00:15:43.384Z,1.77
2023-03-11T00:18:11.654Z,1.75
2023-03-11T00:20:42.994Z,1.33
2023-03-11T00:23:12.916Z,1.40
2023-03-11T00:25:41.185Z,1.40
2023-03-11T00:28:10.409Z,2.28
2023-03-11T00:30:40.695Z,1.90
2023-03-11T00:33:10.160Z,1.25
2023-03-11T00:35:38.314Z,1.70
2023-03-11T00:38:08.547Z,2.05
2023-03-11T00:40:37.438Z,1.88
2023-03-11T00:43:05.387Z,1.33
2023-03-11T00:45:33.765Z,1.60
2023-03-11T00:48:03.262Z,2.00
2023-03-11T00:50:33.407Z,2.30
2023-03-11T00:53:02.238Z,1.15
2023-03-11T00:55:32.111Z,2.05
2023-03-11T00:58:03.480Z,1.83
2023-03-11T01:01:00.353Z,1.88
2023-03-11T01:03:29.765Z,1.25
2023-03-11T01:05:57.719Z,1.52
2023-03-11T01:08:27.083Z,1.15
2023-03-11T01:10:56.069Z,1.40
2023-03-11T01:13:23.984Z,1.67
2023-03-11T01:15:52.012Z,1.17
2023-03-11T01:18:22.442Z,1.40
2023-03-11T01:20:52.147Z,1.73
2023-03-11T01:23:21.135Z,1.42
2023-03-11T01:25:49.341Z,1.40
2023-03-11T01:28:17.366Z,1.20
2023-03-11T01:30:46.224Z,1.38
2023-03-11T01:33:18.193Z,1.20
2023-03-11T01:35:46.490Z,1.70
2023-03-11T01:38:17.116Z,1.25
2023-03-11T01:40:47.426Z,1.20
2023-03-11T01:43:39.918Z,1.65
2023-03-11T01:46:15.882Z,1.73
2023-03-11T01:48:47.915Z,1.58
2023-03-11T01:51:18.341Z,1.35
2023-03-11T01:53:47.870Z,1.20
2023-03-11T01:56:15.898Z,1.73
2023-03-11T01:58:47.011Z,1.45
2023-03-11T02:01:15.029Z,2.10
2023-03-11T02:03:43.817Z,2.00
2023-03-11T02:06:14.985Z,1.38
2023-03-11T02:08:46.336Z,2.22
2023-03-11T02:11:21.543Z,1.83
2023-03-11T02:13:53.090Z,1.35
2023-03-11T02:16:21.426Z,2.28
2023-03-11T02:18:49.423Z,2.40
2023-03-11T02:21:24.758Z,2.35
2023-03-11T02:24:00.991Z,1.45
2023-03-11T02:26:35.938Z,2.03
2023-03-11T02:29:10.876Z,1.98
2023-03-11T02:31:43.104Z,2.13
2023-03-11T02:34:17.788Z,1.30
2023-03-11T02:36:45.768Z,1.58
2023-03-11T02:39:15.630Z,1.58
2023-03-11T02:41:46.768Z,1.30
2023-03-11T02:44:17.445Z,1.40
2023-03-11T02:46:46.101Z,1.30
2023-03-11T02:49:15.053Z,2.00
2023-03-11T02:51:43.086Z,1.80
2023-03-11T02:54:10.975Z,1.00
2023-03-11T02:56:39.553Z,1.45
2023-03-11T02:59:07.520Z,1.55
2023-03-11T03:01:37.174Z,1.33
2023-03-11T03:04:05.567Z,1.98
2023-03-11T03:06:34.812Z,1.30
2023-03-11T03:09:02.818Z,1.50
2023-03-11T03:11:30.822Z,1.40
2023-03-11T03:14:01.654Z,1.60
2023-03-11T03:16:30.118Z,1.70
2023-03-11T03:18:59.524Z,2.33
2023-03-11T03:21:27.692Z,1.90
2023-03-11T03:23:56.713Z,1.30
2023-03-11T03:26:24.701Z,1.25
2023-03-11T03:28:55.369Z,1.70
2023-03-11T03:31:23.465Z,2.30
2023-03-11T03:33:54.426Z,1.48
2023-03-11T03:36:23.963Z,1.35
2023-03-11T03:38:59.441Z,1.40
2023-03-11T03:41:31.806Z,1.50
2023-03-11T03:44:00.777Z,1.05
2023-03-11T03:46:29.525Z,1.48
2023-03-11T03:48:59.528Z,1.25
2023-03-11T03:51:30.310Z,1.38
2023-03-11T03:54:09.498Z,1.40
2023-03-11T03:56:37.476Z,1.40
2023-03-11T03:59:05.949Z,1.00
2023-03-11T04:01:39.599Z,1.20
2023-03-11T04:04:07.845Z,1.40
2023-03-11T04:06:37.193Z,1.40
2023-03-11T04:09:07.734Z,1.05
2023-03-11T04:11:36.574Z,1.35
2023-03-11T04:14:05.757Z,1.45
2023-03-11T04:16:37.378Z,1.20
2023-03-11T04:19:10.587Z,1.60
2023-03-11T04:21:40.071Z,1.50
2023-03-11T04:24:08.490Z,1.35
2023-03-11T04:26:38.882Z,1.00
2023-03-11T04:29:10.343Z,1.25
2023-03-11T04:31:42.987Z,1.50
2023-03-11T04:34:11.049Z,1.35
2023-03-11T04:36:41.384Z,1.20
2023-03-11T04:39:09.985Z,1.60
2023-03-11T04:41:42.754Z,1.50
2023-03-11T04:44:14.006Z,1.20
2023-03-11T04:46:41.949Z,1.30
2023-03-11T04:49:10.962Z,1.55
2023-03-11T04:51:40.656Z,2.92
2023-03-11T04:54:09.207Z,1.25
2023-03-11T04:56:39.129Z,1.30
2023-03-11T04:59:08.132Z,1.67
2023-03-11T05:01:38.409Z,1.77
2023-03-11T05:04:08.705Z,2.08
2023-03-11T05:06:36.958Z,1.40
2023-03-11T05:09:07.236Z,1.42
2023-03-11T05:11:38.183Z,1.33
2023-03-11T05:14:06.265Z,1.38
2023-03-11T05:16:34.305Z,1.35
2023-03-11T05:19:22.377Z,2.67
2023-03-11T05:21:51.104Z,1.80
2023-03-11T05:24:20.713Z,1.98
2023-03-11T05:26:48.721Z,1.27
2023-03-11T05:29:17.320Z,1.65
2023-03-11T05:31:46.851Z,2.13
2023-03-11T05:34:15.222Z,2.15
2023-03-11T05:36:43.358Z,1.25
2023-03-11T05:39:11.683Z,1.30
2023-03-11T05:41:40.984Z,1.15
2023-03-11T05:44:09.042Z,1.25
2023-03-11T05:46:37.226Z,1.38
2023-03-11T05:49:07.133Z,1.50
2023-03-11T05:51:35.411Z,1.45
2023-03-11T05:54:03.400Z,1.20
2023-03-11T05:56:40.060Z,1.20
2023-03-11T05:59:08.952Z,1.83
2023-03-11T06:01:38.449Z,2.03
2023-03-11T06:04:07.617Z,1.50
2023-03-11T06:06:36.719Z,1.23
2023-03-11T06:09:04.900Z,1.73
2023-03-11T06:11:35.293Z,1.17
2023-03-11T06:14:04.558Z,1.30
2023-03-11T06:16:33.009Z,1.58
2023-03-11T06:19:03.898Z,1.05
2023-03-11T06:21:36.192Z,1.25
2023-03-11T06:24:04.408Z,1.42
2023-03-11T06:26:33.275Z,1.23
2023-03-11T06:29:01.260Z,1.45
2023-03-11T06:31:31.313Z,1.40
2023-03-11T06:34:06.297Z,1.20
2023-03-11T06:36:34.978Z,2.45
2023-03-11T06:39:03.682Z,1.88
2023-03-11T06:41:35.260Z,1.00
2023-03-11T06:44:04.913Z,1.20
2023-03-11T06:46:34.816Z,1.10
2023-03-11T06:49:02.821Z,1.10
2023-03-11T06:51:31.777Z,1.40
2023-03-11T06:53:59.708Z,1.27
2023-03-11T06:56:28.948Z,1.20
2023-03-11T06:59:02.014Z,1.35
2023-03-11T07:01:34.499Z,1.40
2023-03-11T07:04:05.686Z,1.10
2023-03-11T07:06:35.006Z,1.10
2023-03-11T07:09:10.690Z,1.42
2023-03-11T07:11:45.168Z,2.42
2023-03-11T07:14:17.284Z,1.55
2023-03-11T07:16:50.495Z,1.70
2023-03-11T07:19:26.652Z,1.42
2023-03-11T07:21:54.535Z,2.35
2023-03-11T07:24:22.801Z,1.40
2023-03-11T07:26:50.751Z,1.20
2023-03-11T07:29:19.100Z,1.80
2023-03-11T07:31:50.504Z,2.25
2023-03-11T07:34:19.784Z,2.05
2023-03-11T07:36:47.748Z,2.38
2023-03-11T07:39:20.493Z,1.10
2023-03-11T07:41:48.837Z,1.50
2023-03-11T07:44:18.214Z,1.83
2023-03-11T07:46:46.859Z,2.03
2023-03-11T07:49:15.137Z,2.38
2023-03-11T07:51:44.827Z,1.77
2023-03-11T07:54:13.206Z,1.95
2023-03-11T07:56:41.580Z,2.10
2023-03-11T07:59:11.744Z,2.00
2023-03-11T08:01:41.202Z,2.38
2023-03-11T08:04:14.425Z,1.65
2023-03-11T08:06:46.049Z,1.17
2023-03-11T08:09:14.987Z,1.35
2023-03-11T08:11:43.152Z,1.17
2023-03-11T08:14:11.416Z,1.50
2023-03-11T08:16:41.490Z,1.48
2023-03-11T08:19:12.627Z,1.55
2023-03-11T08:21:40.705Z,1.65
2023-03-11T08:24:14.751Z,1.20
2023-03-11T08:26:43.266Z,2.00
2023-03-11T08:29:11.284Z,1.13
2023-03-11T08:31:41.436Z,1.98
2023-03-11T08:34:12.002Z,1.30
2023-03-11T08:36:40.316Z,2.10
2023-03-11T08:39:09.824Z,1.40
2023-03-11T08:41:37.836Z,2.00
2023-03-11T08:44:06.224Z,1.25
2023-03-11T08:46:37.032Z,1.55
2023-03-11T08:49:13.156Z,1.02
2023-03-11T08:51:44.197Z,1.30
2023-03-11T08:54:13.594Z,1.10
2023-03-11T08:56:41.623Z,1.27
2023-03-11T08:59:09.596Z,0.90
2023-03-11T09:01:38.071Z,1.45
2023-03-11T09:04:06.291Z,1.60
2023-03-11T09:06:34.265Z,0.90
2023-03-11T09:09:02.187Z,1.52
2023-03-11T09:11:37.325Z,1.42
2023-03-11T09:14:07.579Z,1.15
2023-03-11T09:16:35.714Z,1.20
2023-03-11T09:19:07.167Z,1.63
2023-03-11T09:21:35.745Z,1.25
2023-03-11T09:24:04.779Z,1.00
2023-03-11T09:26:34.642Z,1.10
2023-03-11T09:29:08.172Z,1.35
2023-03-11T09:31:36.488Z,1.73
2023-03-11T09:34:04.484Z,1.60
2023-03-11T09:36:32.494Z,1.20
2023-03-11T09:39:01.615Z,2.00
2023-03-11T09:41:55.198Z,1.35
2023-03-11T09:44:33.799Z,1.02
2023-03-11T09:47:29.778Z,1.10
2023-03-11T09:50:29.394Z,0.90
2023-03-11T09:53:10.591Z,1.05
2023-03-11T09:55:45.735Z,1.17
2023-03-11T09:58:22.664Z,1.23
2023-03-11T10:00:53.369Z,1.25
2023-03-11T10:03:34.894Z,1.60
2023-03-11T10:06:14.266Z,1.00
2023-03-11T10:09:00.994Z,1.00
2023-03-11T10:11:47.861Z,0.90
2023-03-11T10:14:30.261Z,1.10
2023-03-11T10:17:05.560Z,1.85
2023-03-11T10:19:43.776Z,1.00
2023-03-11T10:22:19.029Z,1.23
2023-03-11T10:25:05.208Z,1.30
2023-03-11T10:27:37.757Z,0.98
2023-03-11T10:30:14.974Z,0.90
2023-03-11T10:32:47.930Z,1.20
2023-03-11T10:35:24.658Z,1.70
2023-03-11T10:37:55.812Z,1.90
2023-03-11T10:40:29.295Z,0.80
2023-03-11T10:43:03.092Z,1.25
2023-03-11T10:45:43.278Z,1.42
2023-03-11T10:48:12.950Z,1.13
2023-03-11T10:50:50.440Z,1.20
2023-03-11T10:53:20.001Z,1.00
2023-03-11T10:55:56.789Z,2.10
2023-03-11T10:58:27.058Z,1.27
2023-03-11T11:01:07.398Z,1.30
2023-03-11T11:03:35.780Z,1.33
2023-03-11T11:06:06.588Z,1.50
2023-03-11T11:08:35.205Z,1.38
2023-03-11T11:11:08.068Z,1.17
2023-03-11T11:13:38.730Z,1.00
2023-03-11T11:16:22.030Z,1.40
2023-03-11T11:18:52.806Z,1.15
2023-03-11T11:21:32.235Z,1.00
2023-03-11T11:24:13.058Z,1.23
2023-03-11T11:26:41.003Z,1.95
2023-03-11T11:29:15.743Z,1.00
2023-03-11T11:31:47.210Z,1.50
2023-03-11T11:34:30.595Z,1.00
2023-03-11T11:37:01.919Z,0.90
2023-03-11T11:39:35.640Z,1.00
2023-03-11T11:42:04.672Z,1.23
2023-03-11T11:44:34.946Z,1.20
2023-03-11T11:47:14.277Z,1.00
2023-03-11T11:49:51.896Z,1.30
2023-03-11T11:52:22.384Z,1.60
2023-03-11T11:55:00.516Z,1.73
2023-03-11T11:57:29.288Z,1.27
2023-03-11T11:59:57.697Z,0.93
2023-03-11T12:02:47.433Z,0.93
2023-03-11T12:05:26.762Z,1.33
2023-03-11T12:08:03.898Z,1.00
2023-03-11T12:10:39.121Z,0.98
2023-03-11T12:13:51.713Z,0.95
2023-03-11T12:16:29.097Z,1.20
2023-03-11T12:19:03.982Z,1.15
2023-03-11T12:22:06.125Z,1.20
2023-03-11T12:24:48.797Z,1.65
2023-03-11T12:27:26.922Z,1.40
2023-03-11T12:29:59.065Z,1.15
2023-03-11T12:32:34.691Z,1.33
2023-03-11T12:35:13.715Z,0.90
2023-03-11T12:37:41.674Z,0.90
2023-03-11T12:40:43.599Z,3.30
2023-03-11T12:43:25.916Z,4.93
2023-03-11T12:45:55.693Z,5.75
2023-03-11T12:48:44.256Z,4.07
2023-03-11T12:51:44.124Z,3.95
2023-03-11T12:54:31.686Z,4.40
2023-03-11T12:57:03.023Z,5.10
2023-03-11T13:00:22.678Z,4.22
2023-03-11T13:03:24.518Z,6.85
2023-03-11T13:06:01.707Z,4.50
2023-03-11T13:08:38.385Z,3.85
2023-03-11T13:11:31.155Z,4.30
2023-03-11T13:14:24.386Z,3.97
2023-03-11T13:16:58.227Z,5.68
2023-03-11T13:19:53.074Z,3.85
2023-03-11T13:23:15.396Z,5.03
2023-03-11T13:26:03.499Z,6.78
2023-03-11T13:28:53.348Z,8.45
2023-03-11T13:31:42.481Z,8.20
2023-03-11T13:34:18.055Z,7.25
2023-03-11T13:37:12.320Z,8.15
2023-03-11T13:39:55.789Z,9.63
2023-03-11T13:42:39.618Z,7.85
2023-03-11T13:45:16.514Z,7.63
2023-03-11T13:47:50.825Z,8.23
2023-03-11T13:50:27.237Z,5.43
2023-03-11T13:52:58.069Z,6.30
2023-03-11T13:55:34.232Z,6.70
2023-03-11T13:58:16.897Z,8.32
2023-03-11T14:00:56.931Z,8.68
2023-03-11T14:03:32.184Z,4.70
2023-03-11T14:06:03.753Z,6.75
2023-03-11T14:08:34.830Z,6.50
2023-03-11T14:11:05.067Z,6.10
2023-03-11T14:13:39.818Z,4.75
2023-03-11T14:16:10.500Z,6.90
2023-03-11T14:18:40.838Z,7.20
2023-03-11T14:21:14.655Z,5.60
2023-03-11T14:23:45.122Z,5.60
2023-03-11T14:26:18.928Z,4.85
2023-03-11T14:28:51.961Z,6.15
2023-03-11T14:31:30.480Z,5.22
2023-03-11T14:34:04.356Z,4.60
2023-03-11T14:36:41.553Z,5.10
2023-03-11T14:39:31.326Z,6.00
2023-03-11T14:42:05.101Z,5.50
2023-03-11T14:44:36.766Z,5.35
2023-03-11T14:47:12.349Z,5.35
2023-03-11T14:49:43.244Z,8.10
2023-03-11T14:52:19.627Z,6.78
2023-03-11T14:54:52.945Z,5.88
2023-03-11T14:57:30.313Z,5.55
2023-03-11T15:00:00.500Z,6.63
2023-03-11T15:02:43.711Z,7.13
2023-03-11T15:05:19.403Z,5.55
2023-03-11T15:07:50.795Z,6.60
2023-03-11T15:10:18.815Z,5.55
2023-03-11T15:12:46.813Z,6.35
2023-03-11T15:15:27.766Z,6.65
2023-03-11T15:17:57.503Z,5.90
2023-03-11T15:20:29.304Z,7.60
2023-03-11T15:23:00.974Z,6.20
2023-03-11T15:25:31.935Z,5.53
2023-03-11T15:28:00.121Z,5.38
2023-03-11T15:30:32.005Z,5.57
2023-03-11T15:33:00.312Z,2.97
2023-03-11T15:35:29.673Z,5.60
2023-03-11T15:38:20.991Z,5.25
2023-03-11T15:40:55.713Z,4.40
2023-03-11T15:43:28.663Z,3.47
2023-03-11T15:45:58.634Z,5.82
2023-03-11T15:48:27.876Z,4.68
2023-03-11T15:50:57.328Z,4.82
2023-03-11T15:53:27.242Z,5.32
2023-03-11T15:56:06.228Z,3.95
2023-03-11T15:58:35.349Z,4.88
2023-03-11T16:01:04.772Z,3.35
2023-03-11T16:03:32.809Z,5.57
2023-03-11T16:06:00.826Z,5.22
2023-03-11T16:08:28.771Z,4.70
2023-03-11T16:10:57.964Z,5.38
2023-03-11T16:13:25.886Z,4.90
2023-03-11T16:15:54.358Z,4.88
2023-03-11T16:18:24.025Z,2.85
2023-03-11T16:20:54.173Z,2.85
2023-03-11T16:23:24.716Z,4.97
2023-03-11T16:25:56.865Z,3.95
2023-03-11T16:28:24.769Z,4.22
2023-03-11T16:30:53.226Z,6.35
2023-03-11T16:33:22.700Z,4.15
2023-03-11T16:35:50.633Z,3.10
2023-03-11T16:38:19.557Z,2.90
2023-03-11T16:40:57.670Z,5.60
2023-03-11T16:43:25.981Z,2.83
2023-03-11T16:45:54.881Z,2.45
2023-03-11T16:48:24.747Z,5.35
2023-03-11T16:50:52.620Z,3.15
2023-03-11T16:53:20.534Z,2.75
2023-03-11T16:55:49.106Z,1.85
2023-03-11T16:58:17.136Z,3.85
2023-03-11T17:00:45.549Z,3.70
2023-03-11T17:03:13.765Z,3.15
2023-03-11T17:05:43.773Z,3.60
2023-03-11T17:08:12.799Z,2.55
2023-03-11T17:10:43.557Z,4.53
2023-03-11T17:13:12.487Z,4.28
2023-03-11T17:15:43.686Z,3.28
2023-03-11T17:18:12.391Z,4.07
2023-03-11T17:20:43.386Z,2.88
2023-03-11T17:23:11.537Z,3.13
2023-03-11T17:25:42.149Z,2.83
2023-03-11T17:28:10.606Z,3.95
2023-03-11T17:30:43.199Z,2.60
2023-03-11T17:33:11.255Z,4.32
2023-03-11T17:35:39.228Z,2.28
2023-03-11T17:38:08.496Z,2.40
2023-03-11T17:40:36.702Z,2.90
2023-03-11T17:43:04.627Z,3.47
2023-03-11T17:45:32.530Z,2.83
2023-03-11T17:48:00.473Z,2.92
2023-03-11T17:50:28.394Z,2.38
2023-03-11T17:52:56.463Z,3.08
2023-03-11T17:55:26.217Z,2.83
2023-03-11T17:57:54.391Z,3.45
2023-03-11T18:00:23.254Z,3.42
2023-03-11T18:02:51.288Z,2.50
2023-03-11T18:05:19.618Z,3.22
2023-03-11T18:07:47.667Z,3.05
2023-03-11T18:10:16.352Z,2.90
2023-03-11T18:12:46.961Z,1.90
2023-03-11T18:15:18.990Z,2.70
2023-03-11T18:17:47.328Z,2.70
2023-03-11T18:20:15.748Z,2.15
2023-03-11T18:22:46.621Z,3.25
2023-03-11T18:25:14.942Z,2.65
2023-03-11T18:27:43.413Z,2.85
2023-03-11T18:30:14.415Z,2.40
2023-03-11T18:32:42.417Z,2.13
2023-03-11T18:35:13.879Z,2.80
2023-03-11T18:37:41.769Z,2.95
2023-03-11T18:40:11.140Z,2.72
2023-03-11T18:42:39.040Z,2.10
2023-03-11T18:45:07.785Z,3.03
2023-03-11T18:47:39.426Z,3.53
2023-03-11T18:50:12.347Z,2.30
2023-03-11T18:52:40.308Z,2.00
2023-03-11T18:55:10.926Z,1.63
2023-03-11T18:57:40.344Z,1.90
2023-03-11T19:00:09.610Z,2.67
2023-03-11T19:02:38.882Z,2.63
2023-03-11T19:05:07.974Z,2.58
2023-03-11T19:07:36.001Z,2.28
2023-03-11T19:10:09.807Z,1.95
2023-03-11T19:12:38.064Z,2.58
2023-03-11T19:15:10.051Z,2.65
2023-03-11T19:17:39.292Z,2.50
2023-03-11T19:20:08.813Z,2.65
2023-03-11T19:22:36.748Z,2.70
2023-03-11T19:25:05.936Z,3.13
2023-03-11T19:27:34.894Z,3.08
2023-03-11T19:30:02.959Z,2.78
2023-03-11T19:32:30.946Z,2.60
2023-03-11T19:35:00.195Z,1.75
2023-03-11T19:37:28.114Z,2.85
2023-03-11T19:39:56.030Z,2.30
2023-03-11T19:42:23.973Z,2.25
2023-03-11T19:44:54.371Z,2.50
2023-03-11T19:47:25.669Z,3.60
2023-03-11T19:49:53.561Z,2.25
2023-03-11T19:52:23.290Z,2.35
2023-03-11T19:54:51.546Z,2.50
2023-03-11T19:57:22.491Z,2.70
2023-03-11T19:59:50.415Z,1.70
2023-03-11T20:02:18.334Z,2.17
2023-03-11T20:04:46.356Z,1.55
2023-03-11T20:07:14.236Z,2.63
2023-03-11T20:09:43.594Z,1.63
2023-03-11T20:12:11.544Z,1.67
2023-03-11T20:14:39.504Z,3.38
2023-03-11T20:17:07.697Z,1.70
2023-03-11T20:19:35.757Z,1.98
2023-03-11T20:22:03.709Z,1.92
2023-03-11T20:24:31.634Z,1.70
2023-03-11T20:27:01.021Z,2.78
2023-03-11T20:29:28.994Z,3.25
2023-03-11T20:31:56.997Z,3.90
2023-03-11T20:34:25.059Z,1.70
2023-03-11T20:36:53.003Z,1.55
2023-03-11T20:39:20.997Z,2.03
2023-03-11T20:41:49.135Z,2.67
2023-03-11T20:44:18.385Z,3.00
2023-03-11T20:46:46.438Z,2.30
2023-03-11T20:49:14.461Z,2.72
2023-03-11T20:51:43.735Z,2.15
2023-03-11T20:54:12.367Z,1.52
2023-03-11T20:56:40.312Z,2.40
2023-03-11T20:59:08.567Z,2.90
2023-03-11T21:01:37.882Z,1.98
2023-03-11T21:04:06.265Z,3.50
2023-03-11T21:06:36.347Z,1.83
2023-03-11T21:09:06.652Z,2.05
2023-03-11T21:11:35.153Z,2.10
2023-03-11T21:14:03.583Z,1.20
2023-03-11T21:16:31.878Z,2.08
2023-03-11T21:19:05.386Z,1.98
2023-03-11T21:21:33.469Z,2.22
2023-03-11T21:24:01.539Z,2.25
2023-03-11T21:26:29.620Z,2.80
2023-03-11T21:28:57.671Z,1.92
2023-03-11T21:31:29.245Z,1.70
2023-03-11T21:33:59.623Z,2.65
2023-03-11T21:36:29.808Z,2.30
2023-03-11T21:38:57.810Z,3.05
2023-03-11T21:41:27.453Z,2.30
2023-03-11T21:43:57.390Z,1.85
2023-03-11T21:46:29.820Z,2.40
2023-03-11T21:48:58.475Z,2.45
2023-03-11T21:51:28.591Z,3.40
2023-03-11T21:53:56.993Z,1.75
2023-03-11T21:56:25.163Z,1.98
2023-03-11T21:58:53.789Z,1.75
2023-03-11T22:01:21.889Z,2.53
2023-03-11T22:03:50.005Z,2.17
2023-03-11T22:06:17.980Z,2.10
2023-03-11T22:08:47.272Z,2.30
2023-03-11T22:11:18.371Z,2.08
2023-03-11T22:13:47.232Z,1.75
2023-03-11T22:16:15.659Z,1.85
2023-03-11T22:18:43.721Z,2.67
2023-03-11T22:21:12.033Z,1.92
2023-03-11T22:23:40.022Z,2.00
2023-03-11T22:26:09.925Z,2.35
2023-03-11T22:28:38.062Z,1.67
2023-03-11T22:31:10.611Z,1.90
2023-03-11T22:33:38.669Z,1.73
2023-03-11T22:36:09.061Z,1.30
2023-03-11T22:38:39.950Z,1.88
2023-03-11T22:41:20.980Z,2.80
2023-03-11T22:43:48.843Z,2.22
2023-03-11T22:46:16.795Z,2.05
2023-03-11T22:48:44.787Z,1.80
2023-03-11T22:51:12.947Z,2.05
2023-03-11T22:53:43.787Z,2.75
2023-03-11T22:56:15.451Z,1.92
2023-03-11T22:58:43.932Z,2.35
2023-03-11T23:01:12.144Z,2.28
2023-03-11T23:03:40.345Z,1.77
2023-03-11T23:06:11.742Z,1.77
2023-03-11T23:08:39.680Z,1.80
2023-03-11T23:11:09.704Z,1.95
2023-03-11T23:13:39.836Z,1.77
2023-03-11T23:16:09.470Z,1.58
2023-03-11T23:18:38.466Z,1.48
2023-03-11T23:21:06.704Z,1.73
2023-03-11T23:23:34.613Z,1.95
2023-03-11T23:26:11.377Z,1.88
2023-03-11T23:28:41.391Z,1.80
2023-03-11T23:31:10.123Z,2.13
2023-03-11T23:33:38.566Z,1.67
2023-03-11T23:36:08.713Z,2.40
2023-03-11T23:38:37.318Z,2.50
2023-03-11T23:41:06.970Z,1.67
2023-03-11T23:43:34.931Z,2.05
2023-03-11T23:46:04.494Z,2.20
2023-03-11T23:48:32.697Z,2.33
2023-03-11T23:51:01.860Z,2.75
2023-03-11T23:53:29.911Z,2.28
2023-03-11T23:55:57.885Z,2.10
2023-03-11T23:58:25.921Z,3.22
